createdAt,value
2019-03-24T00:00:30.333Z,4.90
2019-03-24T00:03:00.022Z,4.90
2019-03-24T00:05:29.646Z,4.90
2019-03-24T00:07:59.401Z,4.80
2019-03-24T00:10:28.989Z,4.80
2019-03-24T00:12:58.606Z,4.80
2019-03-24T00:15:28.270Z,4.70
2019-03-24T00:17:57.950Z,4.60
2019-03-24T00:20:27.565Z,4.60
2019-03-24T00:22:57.183Z,4.60
2019-03-24T00:25:26.800Z,4.50
2019-03-24T00:27:56.413Z,4.50
2019-03-24T00:30:26.002Z,4.50
2019-03-24T00:32:55.629Z,4.40
2019-03-24T00:35:25.217Z,4.50
2019-03-24T00:37:54.807Z,4.60
2019-03-24T00:40:24.798Z,4.60
2019-03-24T00:42:54.538Z,4.40
2019-03-24T00:45:24.145Z,4.20
2019-03-24T00:47:53.767Z,4.00
2019-03-24T00:50:23.352Z,4.00
2019-03-24T00:52:52.942Z,4.10
2019-03-24T00:55:22.556Z,4.10
2019-03-24T00:57:52.147Z,4.20
2019-03-24T01:00:31.925Z,4.20
2019-03-24T01:03:01.517Z,4.30
2019-03-24T01:05:31.146Z,4.30
2019-03-24T01:08:00.834Z,4.30
2019-03-24T01:10:30.432Z,4.40
2019-03-24T01:13:00.051Z,4.50
2019-03-24T01:15:29.678Z,4.50
2019-03-24T01:17:59.356Z,4.40
2019-03-24T01:20:28.967Z,4.30
2019-03-24T01:22:58.585Z,4.20
2019-03-24T01:25:28.210Z,4.20
2019-03-24T01:27:57.805Z,4.20
2019-03-24T01:30:27.415Z,4.20
2019-03-24T01:32:57.024Z,4.20
2019-03-24T01:35:26.685Z,4.30
2019-03-24T01:37:56.302Z,4.30
2019-03-24T01:40:25.991Z,4.20
2019-03-24T01:42:55.759Z,4.00
2019-03-24T01:45:25.374Z,3.70
2019-03-24T01:47:55.073Z,3.60
2019-03-24T01:50:24.666Z,3.70
2019-03-24T01:52:54.268Z,3.70
2019-03-24T01:55:23.897Z,3.70
2019-03-24T01:57:53.486Z,3.70
2019-03-24T02:00:23.170Z,3.70
2019-03-24T02:02:52.786Z,3.80
2019-03-24T02:05:22.378Z,3.80
2019-03-24T02:07:52.062Z,3.90
2019-03-24T02:10:21.861Z,3.90
2019-03-24T02:12:51.548Z,3.90
2019-03-24T02:15:21.167Z,4.00
2019-03-24T02:17:50.757Z,3.90
2019-03-24T02:20:20.586Z,4.00
2019-03-24T02:22:50.171Z,3.90
2019-03-24T02:25:19.760Z,4.00
2019-03-24T02:27:49.378Z,4.00
2019-03-24T02:30:19.109Z,3.80
2019-03-24T02:32:48.706Z,3.80
2019-03-24T02:35:18.297Z,3.80
2019-03-24T02:37:47.913Z,3.70
2019-03-24T02:40:18.239Z,3.60
2019-03-24T02:42:47.850Z,3.60
2019-03-24T02:45:17.807Z,3.50
2019-03-24T02:47:47.400Z,3.40
2019-03-24T02:50:17.243Z,3.50
2019-03-24T02:52:46.805Z,3.50
2019-03-24T02:55:16.563Z,3.70
2019-03-24T02:57:47.097Z,3.80
2019-03-24T03:00:17.309Z,3.80
2019-03-24T03:02:46.885Z,3.80
2019-03-24T03:05:16.840Z,3.80
2019-03-24T03:07:46.459Z,3.60
2019-03-24T03:10:16.818Z,3.60
2019-03-24T03:12:47.752Z,3.60
2019-03-24T03:15:17.783Z,3.60
2019-03-24T03:17:47.401Z,3.40
2019-03-24T03:20:17.326Z,3.30
2019-03-24T03:22:46.944Z,3.20
2019-03-24T03:25:16.669Z,3.10
2019-03-24T03:27:46.285Z,3.10
2019-03-24T03:30:16.011Z,3.20
2019-03-24T03:32:45.630Z,3.30
2019-03-24T03:35:15.308Z,3.30
2019-03-24T03:37:44.946Z,3.30
2019-03-24T03:40:14.879Z,3.30
2019-03-24T03:42:44.930Z,3.30
2019-03-24T03:45:17.664Z,3.20
2019-03-24T03:47:47.258Z,3.20
2019-03-24T03:50:16.903Z,3.10
2019-03-24T03:52:46.499Z,3.10
2019-03-24T03:55:16.118Z,3.10
2019-03-24T03:57:45.730Z,3.00
2019-03-24T04:00:16.084Z,3.10
2019-03-24T04:02:45.646Z,3.00
2019-03-24T04:05:15.269Z,2.90
2019-03-24T04:07:44.865Z,2.90
2019-03-24T04:10:14.450Z,3.10
2019-03-24T04:12:44.073Z,3.10
2019-03-24T04:15:13.841Z,3.20
2019-03-24T04:17:43.430Z,3.20
2019-03-24T04:20:13.183Z,3.20
2019-03-24T04:22:43.066Z,3.20
2019-03-24T04:25:12.767Z,3.20
2019-03-24T04:27:42.385Z,3.00
2019-03-24T04:30:12.783Z,2.90
2019-03-24T04:32:42.398Z,2.90
2019-03-24T04:35:12.343Z,2.80
2019-03-24T04:37:41.926Z,2.80
2019-03-24T04:40:11.780Z,2.70
2019-03-24T04:42:41.369Z,2.80
2019-03-24T04:45:11.315Z,2.90
2019-03-24T04:47:40.910Z,3.00
2019-03-24T04:50:11.030Z,3.00
2019-03-24T04:52:40.620Z,3.00
2019-03-24T04:55:10.774Z,3.10
2019-03-24T04:57:40.361Z,3.10
2019-03-24T05:00:11.187Z,3.10
2019-03-24T05:02:40.802Z,2.90
2019-03-24T05:05:11.296Z,2.80
2019-03-24T05:07:42.025Z,2.70
2019-03-24T05:10:28.653Z,2.70
2019-03-24T05:12:58.407Z,2.70
2019-03-24T05:15:28.119Z,2.70
2019-03-24T05:17:57.706Z,2.70
2019-03-24T05:20:27.390Z,2.70
2019-03-24T05:22:57.012Z,2.90
2019-03-24T05:25:26.600Z,3.00
2019-03-24T05:27:56.219Z,3.30
2019-03-24T05:30:25.810Z,3.40
2019-03-24T05:32:55.397Z,3.50
2019-03-24T05:35:25.012Z,3.50
2019-03-24T05:37:54.683Z,3.50
2019-03-24T05:40:24.390Z,3.50
2019-03-24T05:42:53.995Z,3.60
2019-03-24T05:45:23.604Z,3.70
2019-03-24T05:47:53.313Z,3.80
2019-03-24T05:50:22.900Z,3.80
2019-03-24T05:52:52.491Z,3.90
2019-03-24T05:55:22.104Z,3.80
2019-03-24T05:57:51.693Z,3.90
2019-03-24T06:00:21.380Z,3.90
2019-03-24T06:02:50.996Z,4.00
2019-03-24T06:05:20.586Z,4.30
2019-03-24T06:07:50.204Z,4.40
2019-03-24T06:10:19.798Z,4.60
2019-03-24T06:12:49.464Z,4.70
2019-03-24T06:15:19.079Z,4.90
2019-03-24T06:17:48.698Z,5.00
2019-03-24T06:20:18.381Z,5.20
2019-03-24T06:22:47.990Z,5.40
2019-03-24T06:25:17.622Z,5.60
2019-03-24T06:27:47.217Z,5.90
2019-03-24T06:30:17.305Z,6.20
2019-03-24T06:32:46.921Z,6.50
2019-03-24T06:35:16.511Z,6.80
2019-03-24T06:37:46.135Z,7.10
2019-03-24T06:40:15.962Z,7.40
2019-03-24T06:42:45.555Z,7.70
2019-03-24T06:45:15.389Z,8.00
2019-03-24T06:47:44.995Z,8.30
2019-03-24T06:50:14.991Z,8.60
2019-03-24T06:52:44.614Z,8.80
2019-03-24T06:55:14.346Z,9.10
2019-03-24T06:57:43.967Z,9.50
2019-03-24T07:00:14.095Z,9.80
2019-03-24T07:02:43.721Z,10.10
2019-03-24T07:05:14.421Z,10.30
2019-03-24T07:07:44.039Z,10.60
2019-03-24T07:10:13.880Z,10.80
2019-03-24T07:12:43.506Z,10.90
2019-03-24T07:15:13.341Z,10.90
2019-03-24T07:17:42.978Z,10.90
2019-03-24T07:20:13.384Z,11.00
2019-03-24T07:22:42.980Z,11.20
2019-03-24T07:25:12.817Z,11.40
2019-03-24T07:27:42.411Z,11.50
2019-03-24T07:30:13.443Z,11.60
2019-03-24T07:32:43.071Z,11.60
2019-03-24T07:35:12.742Z,11.80
2019-03-24T07:37:42.416Z,11.90
2019-03-24T07:40:12.557Z,12.10
2019-03-24T07:42:42.180Z,12.40
2019-03-24T07:45:12.316Z,12.70
2019-03-24T07:47:41.945Z,13.00
2019-03-24T07:50:12.068Z,13.10
2019-03-24T07:52:41.663Z,13.30
2019-03-24T07:55:11.532Z,13.20
2019-03-24T07:57:41.156Z,13.40
2019-03-24T08:00:12.773Z,13.60
2019-03-24T08:02:51.825Z,13.60
2019-03-24T08:05:21.452Z,13.80
2019-03-24T08:07:51.048Z,13.90
2019-03-24T08:10:20.678Z,14.10
2019-03-24T08:12:50.369Z,14.40
2019-03-24T08:15:20.088Z,14.60
2019-03-24T08:17:49.676Z,14.70
2019-03-24T08:20:19.424Z,14.80
2019-03-24T08:22:49.019Z,14.90
2019-03-24T08:25:19.206Z,14.90
2019-03-24T08:27:48.826Z,15.10
2019-03-24T08:30:28.953Z,15.30
2019-03-24T08:32:58.619Z,15.30
2019-03-24T08:35:28.231Z,15.40
2019-03-24T08:37:57.925Z,15.60
2019-03-24T08:40:27.554Z,15.70
2019-03-24T08:42:57.239Z,15.80
2019-03-24T08:45:29.720Z,15.90
2019-03-24T08:48:00.050Z,16.10
2019-03-24T08:50:29.812Z,16.30
2019-03-24T08:52:59.566Z,16.50
2019-03-24T08:55:29.198Z,16.60
2019-03-24T08:57:58.791Z,16.60
2019-03-24T09:00:30.898Z,16.80
2019-03-24T09:02:59.732Z,16.90
2019-03-24T09:05:29.327Z,16.80
2019-03-24T09:07:58.947Z,16.90
2019-03-24T09:10:28.640Z,17.00
2019-03-24T09:12:58.234Z,17.20
2019-03-24T09:15:27.873Z,17.40
2019-03-24T09:17:57.472Z,17.60
2019-03-24T09:20:27.068Z,17.60
2019-03-24T09:22:56.693Z,17.80
2019-03-24T09:25:26.329Z,17.90
2019-03-24T09:27:55.991Z,18.00
2019-03-24T09:30:36.456Z,18.00
2019-03-24T09:33:06.586Z,18.10
2019-03-24T09:35:36.519Z,18.10
2019-03-24T09:38:06.530Z,18.10
2019-03-24T09:40:37.261Z,18.20
2019-03-24T09:43:07.276Z,18.20
2019-03-24T09:45:37.065Z,18.20
2019-03-24T09:48:07.023Z,18.00
2019-03-24T09:50:37.146Z,18.10
2019-03-24T09:53:06.948Z,18.30
2019-03-24T09:55:36.583Z,18.30
2019-03-24T09:58:06.422Z,18.30
2019-03-24T10:00:36.025Z,18.30
2019-03-24T10:03:06.003Z,18.40
2019-03-24T10:05:35.610Z,18.50
2019-03-24T10:08:05.633Z,18.40
2019-03-24T10:10:35.258Z,18.50
2019-03-24T10:13:04.952Z,18.50
2019-03-24T10:15:34.622Z,18.50
2019-03-24T10:18:04.288Z,18.60
2019-03-24T10:20:33.924Z,18.50
2019-03-24T10:23:03.592Z,18.60
2019-03-24T10:25:33.213Z,18.60
2019-03-24T10:28:02.844Z,18.60
2019-03-24T10:30:32.472Z,18.70
2019-03-24T10:33:02.173Z,18.70
2019-03-24T10:35:31.794Z,18.70
2019-03-24T10:38:01.393Z,18.80
2019-03-24T10:40:31.031Z,18.90
2019-03-24T10:43:00.744Z,18.90
2019-03-24T10:45:30.368Z,18.80
2019-03-24T10:47:59.967Z,18.80
2019-03-24T10:50:29.599Z,18.90
2019-03-24T10:52:59.195Z,19.00
2019-03-24T10:55:28.835Z,18.90
2019-03-24T10:57:58.440Z,19.00
2019-03-24T11:00:42.659Z,19.00
2019-03-24T11:03:12.350Z,19.00
2019-03-24T11:05:42.384Z,19.00
2019-03-24T11:08:12.157Z,19.00
2019-03-24T11:10:42.755Z,19.00
2019-03-24T11:13:12.354Z,19.00
2019-03-24T11:15:41.964Z,19.10
2019-03-24T11:18:11.610Z,19.10
2019-03-24T11:20:41.209Z,19.10
2019-03-24T11:23:11.948Z,19.10
2019-03-24T11:25:41.578Z,19.00
2019-03-24T11:28:11.264Z,19.10
2019-03-24T11:30:40.973Z,19.10
2019-03-24T11:33:10.639Z,19.20
2019-03-24T11:35:40.240Z,19.30
2019-03-24T11:38:09.874Z,19.30
2019-03-24T11:40:39.478Z,19.20
2019-03-24T11:43:09.099Z,19.10
2019-03-24T11:45:38.696Z,19.20
2019-03-24T11:48:08.354Z,19.20
2019-03-24T11:50:37.945Z,19.20
2019-03-24T11:53:07.652Z,19.40
2019-03-24T11:55:37.251Z,19.50
2019-03-24T11:58:06.994Z,19.40
2019-03-24T12:00:38.899Z,19.40
2019-03-24T12:03:08.635Z,19.50
2019-03-24T12:05:38.396Z,19.40
2019-03-24T12:08:08.257Z,19.40
2019-03-24T12:10:38.123Z,19.30
2019-03-24T12:13:07.753Z,19.40
2019-03-24T12:15:37.734Z,19.40
2019-03-24T12:18:07.398Z,19.30
2019-03-24T12:20:37.023Z,19.40
2019-03-24T12:23:06.696Z,19.40
2019-03-24T12:25:36.330Z,19.50
2019-03-24T12:28:06.097Z,19.60
2019-03-24T12:30:35.728Z,19.70
2019-03-24T12:33:05.459Z,19.70
2019-03-24T12:35:35.143Z,19.70
2019-03-24T12:38:05.250Z,19.80
2019-03-24T12:40:34.958Z,19.70
2019-03-24T12:43:04.826Z,19.70
2019-03-24T12:45:34.422Z,19.70
2019-03-24T12:48:04.149Z,19.70
2019-03-24T12:50:33.778Z,19.70
2019-03-24T12:53:03.547Z,19.70
2019-03-24T12:55:33.139Z,19.70
2019-03-24T12:58:02.749Z,19.70
2019-03-24T13:00:39.853Z,19.60
2019-03-24T13:03:09.898Z,19.70
2019-03-24T13:05:39.628Z,19.60
2019-03-24T13:08:14.615Z,19.60
2019-03-24T13:10:45.422Z,19.60
2019-03-24T13:13:15.182Z,19.80
2019-03-24T13:15:45.050Z,19.80
2019-03-24T13:18:14.747Z,19.90
2019-03-24T13:20:44.438Z,19.90
2019-03-24T13:23:14.218Z,20.00
2019-03-24T13:25:43.845Z,20.00
2019-03-24T13:28:13.450Z,20.00
2019-03-24T13:30:43.142Z,20.00
2019-03-24T13:33:12.835Z,20.00
2019-03-24T13:35:42.901Z,19.90
2019-03-24T13:38:12.536Z,19.90
2019-03-24T13:40:42.249Z,19.90
2019-03-24T13:43:11.877Z,19.90
2019-03-24T13:45:41.470Z,20.00
2019-03-24T13:48:11.343Z,20.00
2019-03-24T13:50:41.007Z,20.10
2019-03-24T13:53:10.643Z,20.00
2019-03-24T13:55:40.270Z,19.80
2019-03-24T13:58:11.967Z,19.80
2019-03-24T14:00:41.306Z,19.90
2019-03-24T14:03:10.985Z,19.90
2019-03-24T14:05:40.584Z,20.00
2019-03-24T14:08:10.285Z,19.90
2019-03-24T14:10:39.963Z,19.90
2019-03-24T14:13:09.591Z,20.00
2019-03-24T14:15:39.259Z,20.10
2019-03-24T14:18:08.958Z,20.00
2019-03-24T14:20:43.328Z,19.90
2019-03-24T14:23:09.882Z,20.00
2019-03-24T14:25:39.502Z,20.00
2019-03-24T14:28:09.096Z,20.10
2019-03-24T14:30:44.331Z,20.00
2019-03-24T14:33:14.486Z,20.00
2019-03-24T14:35:44.455Z,20.00
2019-03-24T14:38:14.257Z,19.90
2019-03-24T14:40:44.222Z,19.90
2019-03-24T14:43:13.959Z,19.90
2019-03-24T14:45:43.590Z,19.90
2019-03-24T14:48:13.235Z,19.90
2019-03-24T14:50:53.553Z,19.90
2019-03-24T14:53:14.262Z,19.90
2019-03-24T14:55:43.861Z,19.90
2019-03-24T14:58:13.614Z,19.90
2019-03-24T15:00:44.639Z,19.90
2019-03-24T15:03:14.304Z,19.80
2019-03-24T15:05:44.074Z,19.80
2019-03-24T15:08:13.894Z,19.80
2019-03-24T15:10:43.515Z,19.80
2019-03-24T15:13:13.140Z,19.90
2019-03-24T15:15:42.737Z,19.80
2019-03-24T15:18:12.338Z,19.80
2019-03-24T15:20:42.032Z,19.80
2019-03-24T15:23:11.637Z,19.80
2019-03-24T15:25:41.258Z,19.70
2019-03-24T15:28:10.876Z,19.70
2019-03-24T15:30:40.475Z,19.70
2019-03-24T15:33:10.105Z,19.70
2019-03-24T15:35:39.777Z,19.60
2019-03-24T15:38:09.501Z,19.60
2019-03-24T15:40:39.099Z,19.60
2019-03-24T15:43:08.720Z,19.40
2019-03-24T15:45:38.346Z,19.50
2019-03-24T15:48:07.945Z,19.50
2019-03-24T15:50:37.579Z,19.50
2019-03-24T15:53:07.187Z,19.50
2019-03-24T15:55:36.787Z,19.40
2019-03-24T15:58:06.415Z,19.40
2019-03-24T16:00:45.143Z,19.40
2019-03-24T16:03:14.790Z,19.40
2019-03-24T16:05:44.418Z,19.40
2019-03-24T16:08:14.187Z,19.30
2019-03-24T16:10:43.889Z,19.20
2019-03-24T16:13:13.488Z,19.20
2019-03-24T16:15:43.114Z,19.20
2019-03-24T16:18:12.924Z,19.10
2019-03-24T16:20:42.622Z,19.00
2019-03-24T16:23:12.212Z,18.90
2019-03-24T16:25:41.835Z,18.90
2019-03-24T16:28:11.476Z,18.80
2019-03-24T16:30:41.111Z,18.80
2019-03-24T16:33:10.798Z,18.70
2019-03-24T16:35:40.394Z,18.70
2019-03-24T16:38:10.014Z,18.60
2019-03-24T16:40:41.449Z,18.50
2019-03-24T16:43:11.039Z,18.40
2019-03-24T16:45:40.638Z,18.30
2019-03-24T16:48:10.281Z,18.20
2019-03-24T16:50:39.954Z,18.10
2019-03-24T16:53:09.580Z,18.00
2019-03-24T16:55:39.170Z,17.90
2019-03-24T16:58:09.539Z,17.70
2019-03-24T17:00:39.135Z,17.50
2019-03-24T17:03:08.757Z,17.30
2019-03-24T17:05:38.358Z,17.30
2019-03-24T17:08:08.053Z,17.10
2019-03-24T17:10:37.754Z,17.00
2019-03-24T17:13:07.379Z,16.80
2019-03-24T17:15:37.101Z,16.60
2019-03-24T17:18:07.109Z,16.50
2019-03-24T17:20:36.735Z,16.30
2019-03-24T17:23:06.577Z,16.10
2019-03-24T17:25:36.210Z,15.90
2019-03-24T17:28:06.737Z,15.80
2019-03-24T17:30:36.370Z,15.70
2019-03-24T17:33:06.214Z,15.60
2019-03-24T17:35:35.973Z,15.40
2019-03-24T17:38:05.868Z,15.30
2019-03-24T17:40:38.815Z,15.30
2019-03-24T17:43:07.158Z,15.20
2019-03-24T17:45:36.865Z,15.10
2019-03-24T17:48:06.805Z,14.90
2019-03-24T17:50:36.468Z,14.70
2019-03-24T17:53:06.979Z,14.50
2019-03-24T17:55:36.749Z,14.40
2019-03-24T17:58:06.640Z,14.40
2019-03-24T18:00:44.525Z,14.30
2019-03-24T18:03:14.385Z,14.30
2019-03-24T18:05:44.059Z,14.20
2019-03-24T18:08:13.791Z,14.10
2019-03-24T18:10:43.462Z,14.10
2019-03-24T18:13:13.090Z,14.20
2019-03-24T18:15:42.716Z,14.10
2019-03-24T18:18:12.432Z,14.00
2019-03-24T18:20:42.031Z,13.70
2019-03-24T18:23:11.655Z,13.80
2019-03-24T18:25:41.427Z,13.80
2019-03-24T18:28:11.167Z,13.70
2019-03-24T18:30:40.867Z,13.60
2019-03-24T18:33:10.496Z,13.50
2019-03-24T18:35:40.095Z,13.50
2019-03-24T18:38:09.900Z,13.50
2019-03-24T18:40:39.604Z,13.50
2019-03-24T18:43:09.305Z,13.40
2019-03-24T18:45:38.973Z,13.40
2019-03-24T18:48:09.107Z,13.20
2019-03-24T18:50:38.727Z,13.10
2019-03-24T18:53:08.335Z,13.00
2019-03-24T18:55:38.013Z,12.90
2019-03-24T18:58:07.625Z,12.90
2019-03-24T19:00:37.259Z,12.80
2019-03-24T19:03:06.876Z,12.70
2019-03-24T19:05:36.515Z,12.70
2019-03-24T19:08:06.126Z,12.60
2019-03-24T19:10:35.839Z,12.50
2019-03-24T19:13:06.103Z,12.40
2019-03-24T19:15:37.451Z,12.40
2019-03-24T19:18:07.307Z,12.40
2019-03-24T19:20:36.924Z,12.40
2019-03-24T19:23:06.588Z,12.50
2019-03-24T19:25:36.224Z,12.50
2019-03-24T19:28:05.899Z,12.40
2019-03-24T19:30:38.512Z,12.30
2019-03-24T19:33:08.389Z,12.30
2019-03-24T19:35:38.327Z,12.30
2019-03-24T19:38:08.056Z,12.20
2019-03-24T19:40:37.826Z,12.10
2019-03-24T19:43:07.457Z,11.80
2019-03-24T19:45:37.050Z,11.80
2019-03-24T19:48:06.988Z,11.90
2019-03-24T19:50:36.744Z,11.80
2019-03-24T19:53:06.617Z,11.40
2019-03-24T19:55:36.286Z,11.00
2019-03-24T19:58:06.128Z,10.70
2019-03-24T20:00:35.762Z,10.50
2019-03-24T20:03:05.668Z,10.40
2019-03-24T20:05:35.335Z,10.40
2019-03-24T20:08:05.222Z,10.40
2019-03-24T20:10:34.815Z,10.40
2019-03-24T20:13:04.756Z,10.30
2019-03-24T20:15:34.372Z,10.00
2019-03-24T20:18:04.005Z,9.80
2019-03-24T20:20:33.692Z,9.80
2019-03-24T20:23:03.318Z,9.70
2019-03-24T20:25:32.932Z,9.60
2019-03-24T20:28:02.536Z,9.60
2019-03-24T20:30:32.155Z,9.60
2019-03-24T20:33:01.772Z,9.60
2019-03-24T20:35:31.366Z,9.70
2019-03-24T20:38:01.091Z,9.70
2019-03-24T20:40:30.678Z,9.70
2019-03-24T20:43:00.410Z,9.60
2019-03-24T20:45:29.994Z,9.50
2019-03-24T20:47:59.721Z,9.40
2019-03-24T20:50:29.317Z,9.40
2019-03-24T20:53:04.098Z,9.40
2019-03-24T20:55:30.256Z,9.40
2019-03-24T20:57:59.882Z,9.20
2019-03-24T21:00:37.376Z,9.20
2019-03-24T21:03:09.003Z,9.00
2019-03-24T21:05:38.689Z,8.80
2019-03-24T21:08:08.620Z,8.80
2019-03-24T21:10:38.407Z,8.80
2019-03-24T21:13:08.098Z,8.80
2019-03-24T21:15:37.777Z,8.80
2019-03-24T21:18:07.390Z,8.80
2019-03-24T21:20:36.991Z,8.80
2019-03-24T21:23:06.688Z,8.70
2019-03-24T21:25:36.279Z,8.90
2019-03-24T21:28:06.340Z,8.80
2019-03-24T21:30:39.210Z,8.80
2019-03-24T21:33:09.119Z,8.70
2019-03-24T21:35:38.748Z,8.60
2019-03-24T21:38:08.603Z,8.50
2019-03-24T21:40:38.291Z,8.30
2019-03-24T21:43:07.910Z,8.40
2019-03-24T21:45:37.605Z,8.50
2019-03-24T21:48:07.435Z,8.70
2019-03-24T21:50:37.080Z,8.50
2019-03-24T21:53:06.791Z,8.20
2019-03-24T21:55:36.406Z,8.00
2019-03-24T21:58:06.233Z,7.90
2019-03-24T22:00:37.577Z,7.80
2019-03-24T22:03:07.578Z,7.90
2019-03-24T22:05:37.506Z,8.00
2019-03-24T22:08:07.365Z,8.10
2019-03-24T22:10:37.982Z,8.30
2019-03-24T22:13:07.641Z,8.70
2019-03-24T22:15:37.322Z,9.00
2019-03-24T22:18:07.350Z,9.20
2019-03-24T22:20:48.228Z,9.40
2019-03-24T22:23:08.421Z,9.40
2019-03-24T22:25:38.042Z,9.40
2019-03-24T22:28:07.633Z,9.50
2019-03-24T22:30:37.324Z,9.70
2019-03-24T22:33:06.963Z,9.60
2019-03-24T22:35:36.577Z,9.60
2019-03-24T22:38:06.339Z,9.70
2019-03-24T22:40:35.934Z,9.80
2019-03-24T22:43:05.858Z,9.80
2019-03-24T22:45:35.846Z,9.90
2019-03-24T22:48:05.687Z,9.90
2019-03-24T22:50:35.283Z,9.80
2019-03-24T22:53:04.937Z,9.50
2019-03-24T22:55:34.626Z,9.40
2019-03-24T22:58:04.222Z,9.30
2019-03-24T23:00:53.557Z,9.20
2019-03-24T23:03:25.271Z,9.30
2019-03-24T23:05:55.227Z,9.40
2019-03-24T23:08:24.818Z,9.40
2019-03-24T23:10:54.427Z,9.10
2019-03-24T23:13:24.035Z,9.10
2019-03-24T23:15:53.649Z,9.20
2019-03-24T23:18:23.311Z,9.20
2019-03-24T23:20:53.066Z,9.00
2019-03-24T23:23:22.653Z,9.00
2019-03-24T23:25:52.344Z,9.00
2019-03-24T23:28:21.929Z,9.10
2019-03-24T23:30:51.615Z,9.10
2019-03-24T23:33:21.231Z,9.10
2019-03-24T23:35:50.817Z,9.10
2019-03-24T23:38:20.504Z,9.10
2019-03-24T23:40:50.090Z,9.00
2019-03-24T23:43:19.774Z,9.10
2019-03-24T23:45:49.357Z,9.10
2019-03-24T23:48:18.973Z,9.20
2019-03-24T23:50:48.738Z,9.40
2019-03-24T23:53:18.361Z,9.40
2019-03-24T23:55:47.952Z,9.40
2019-03-24T23:58:17.670Z,9.50
